Time;durP1;ratioP1;P1;durP2;ratioP2;P2;SDS_P1;SDS_P2;PMS_P1;PMS_P2;Temp;Humidity;BMP_temperature;BMP_pressure;BME280_temperature;BME280_humidity;BME280_pressure;Samples;Min_cycle;Max_cycle;Signal;HPM_P1;HPM_P2
2023/04/12 00:00:20;;;;;;;6.72;5.07;;;7.00;99.90;;;;;;4990106;28;20026;-54
2023/04/12 00:03:09;;;;;;;6.68;4.70;;;7.10;99.90;;;;;;4971638;28;20027;-51
2023/04/12 00:05:55;;;;;;;8.48;5.53;;;7.00;99.90;;;;;;4981119;28;20033;-51
2023/04/12 00:08:41;;;;;;;7.68;5.70;;;7.00;99.90;;;;;;4991811;28;20117;-51
2023/04/12 00:11:27;;;;;;;5.53;4.75;;;6.90;99.90;;;;;;4990132;28;20555;-53
2023/04/12 00:14:13;;;;;;;8.60;5.82;;;6.90;99.90;;;;;;4988918;28;20125;-53
2023/04/12 00:16:59;;;;;;;9.27;5.55;;;6.90;99.90;;;;;;4989675;28;20379;-50
2023/04/12 00:19:48;;;;;;;7.22;5.45;;;6.80;99.90;;;;;;4993179;28;20026;-51
2023/04/12 00:22:35;;;;;;;9.88;5.55;;;6.80;99.90;;;;;;4975767;28;20066;-54
2023/04/12 00:25:21;;;;;;;7.72;5.90;;;6.80;99.90;;;;;;4992165;28;20038;-52
2023/04/12 00:28:07;;;;;;;9.05;6.30;;;6.80;99.90;;;;;;4990139;28;20499;-52
2023/04/12 00:30:53;;;;;;;7.78;5.80;;;6.70;99.90;;;;;;4991511;28;21159;-53
2023/04/12 00:33:40;;;;;;;7.88;5.68;;;6.70;99.90;;;;;;4990145;28;20031;-53
2023/04/12 00:36:26;;;;;;;8.20;5.75;;;6.70;99.90;;;;;;4992611;28;20039;-52
2023/04/12 00:39:12;;;;;;;6.32;5.43;;;6.60;99.90;;;;;;4992052;28;20410;-51
2023/04/12 00:42:03;;;;;;;8.75;5.38;;;6.50;99.90;;;;;;4990382;28;20026;-52
2023/04/12 00:44:49;;;;;;;5.85;4.88;;;6.50;99.90;;;;;;4975116;28;20034;-55
2023/04/12 00:47:36;;;;;;;8.10;6.15;;;6.40;99.90;;;;;;4989929;28;20035;-53
2023/04/12 00:50:22;;;;;;;7.75;5.20;;;6.40;99.90;;;;;;4992310;28;20034;-49
2023/04/12 00:53:12;;;;;;;6.70;5.40;;;6.40;99.90;;;;;;4991162;28;20595;-53
2023/04/12 00:55:58;;;;;;;6.88;5.18;;;6.40;99.90;;;;;;4990484;28;20021;-50
2023/04/12 00:58:44;;;;;;;7.00;5.45;;;6.40;99.90;;;;;;4991456;28;20058;-50
2023/04/12 01:01:30;;;;;;;7.18;5.05;;;6.40;99.90;;;;;;4980117;28;20031;-50
2023/04/12 01:04:17;;;;;;;8.23;5.82;;;6.40;99.90;;;;;;4995170;28;20038;-57
2023/04/12 01:07:30;;;;;;;6.78;5.70;;;6.30;99.90;;;;;;4992589;28;20030;-51
2023/04/12 01:10:53;;;;;;;9.70;6.40;;;6.30;99.90;;;;;;4988558;28;20120;-54
2023/04/12 01:14:06;;;;;;;8.63;5.72;;;6.30;99.90;;;;;;4987047;28;20436;-50
2023/04/12 01:16:57;;;;;;;10.23;5.78;;;6.20;99.90;;;;;;4990302;28;20058;-51
2023/04/12 01:19:57;;;;;;;8.38;5.50;;;6.30;99.90;;;;;;4994172;28;20066;-53
2023/04/12 01:23:13;;;;;;;7.75;5.40;;;6.30;99.90;;;;;;4993158;28;20602;-52
2023/04/12 01:26:31;;;;;;;8.52;5.50;;;6.30;99.90;;;;;;4994052;28;20022;-49
2023/04/12 01:29:20;;;;;;;8.10;6.03;;;6.30;99.90;;;;;;4991395;28;20066;-54
2023/04/12 01:32:08;;;;;;;8.07;5.80;;;6.20;99.90;;;;;;4992417;28;20081;-51
2023/04/12 01:34:56;;;;;;;8.52;5.57;;;6.20;99.90;;;;;;4994083;28;20034;-54
2023/04/12 01:37:42;;;;;;;11.00;5.32;;;6.20;99.90;;;;;;4992740;28;20022;-54
2023/04/12 01:40:30;;;;;;;7.07;5.53;;;6.20;99.90;;;;;;4991403;28;20014;-51
2023/04/12 01:43:16;;;;;;;8.02;5.07;;;6.30;99.90;;;;;;4991793;28;20049;-53
2023/04/12 01:46:01;;;;;;;8.63;5.65;;;6.30;99.90;;;;;;4978747;28;20046;-53
2023/04/12 01:48:49;;;;;;;6.75;4.95;;;6.30;99.90;;;;;;4991058;28;20034;-51
2023/04/12 01:52:12;;;;;;;7.10;5.30;;;6.30;99.90;;;;;;4992546;28;20034;-51
2023/04/12 01:55:01;;;;;;;8.63;5.53;;;6.30;99.90;;;;;;4985879;28;20100;-52
2023/04/12 01:57:49;;;;;;;7.55;5.80;;;6.30;99.90;;;;;;4991849;28;20376;-54
2023/04/12 02:00:36;;;;;;;8.35;5.40;;;6.40;99.90;;;;;;4979402;28;20088;-50
2023/04/12 02:03:22;;;;;;;8.65;5.63;;;6.40;99.90;;;;;;4993356;28;20136;-52
2023/04/12 02:06:09;;;;;;;8.07;5.32;;;6.40;99.90;;;;;;4991403;28;20018;-54
2023/04/12 02:09:01;;;;;;;7.07;5.00;;;6.30;99.90;;;;;;4993249;28;20027;-52
2023/04/12 02:11:47;;;;;;;7.88;5.60;;;6.30;99.90;;;;;;4990742;28;20022;-49
2023/04/12 02:14:33;;;;;;;10.48;6.35;;;6.30;99.90;;;;;;4993122;28;20089;-49
2023/04/12 02:17:20;;;;;;;10.35;5.72;;;6.30;99.90;;;;;;4992970;28;20019;-49
2023/04/12 02:20:08;;;;;;;7.07;5.22;;;6.40;99.90;;;;;;4992672;28;20030;-49
2023/04/12 02:22:54;;;;;;;8.55;6.00;;;6.40;99.90;;;;;;4993319;28;20022;-52
2023/04/12 02:25:41;;;;;;;10.63;5.43;;;6.50;99.90;;;;;;4991129;28;20030;-52
2023/04/12 02:28:26;;;;;;;7.38;5.10;;;6.50;99.90;;;;;;4992107;28;20072;-50
2023/04/12 02:31:14;;;;;;;6.15;5.00;;;6.60;99.90;;;;;;4993376;28;20030;-49
2023/04/12 02:34:00;;;;;;;8.95;5.07;;;6.60;99.90;;;;;;4991621;28;20030;-50
2023/04/12 02:36:48;;;;;;;9.32;5.38;;;6.50;99.90;;;;;;4991420;28;20488;-53
2023/04/12 02:39:35;;;;;;;11.23;5.05;;;6.50;99.90;;;;;;4993097;28;20026;-54
2023/04/12 02:42:22;;;;;;;6.70;5.63;;;6.50;99.90;;;;;;4993133;28;20034;-54
2023/04/12 02:45:09;;;;;;;7.70;5.22;;;6.60;99.90;;;;;;4993433;28;20034;-53
2023/04/12 02:47:55;;;;;;;7.80;5.50;;;6.50;99.90;;;;;;4991911;28;20030;-52
2023/04/12 02:50:41;;;;;;;7.28;5.60;;;6.40;99.90;;;;;;4992620;28;20039;-56
2023/04/12 02:53:27;;;;;;;9.38;5.53;;;6.40;99.90;;;;;;4994086;28;20062;-52
2023/04/12 02:56:13;;;;;;;10.98;5.45;;;6.40;99.90;;;;;;4992022;28;20030;-49
2023/04/12 02:58:58;;;;;;;10.48;6.03;;;6.40;99.90;;;;;;4993819;28;20096;-54
2023/04/12 03:01:45;;;;;;;8.25;5.32;;;6.40;99.90;;;;;;4993236;28;20404;-54
2023/04/12 03:04:31;;;;;;;8.05;5.93;;;6.20;99.90;;;;;;4992830;28;20034;-52
2023/04/12 03:07:18;;;;;;;8.20;5.55;;;6.20;99.90;;;;;;4992538;28;20554;-53
2023/04/12 03:10:06;;;;;;;9.63;5.47;;;6.30;99.90;;;;;;4992468;28;20515;-53
2023/04/12 03:12:52;;;;;;;8.88;5.32;;;6.30;99.90;;;;;;4993079;28;20030;-55
2023/04/12 03:15:38;;;;;;;11.75;5.38;;;6.20;99.90;;;;;;4983107;28;20107;-52
2023/04/12 03:18:24;;;;;;;7.72;5.63;;;6.20;99.90;;;;;;4991224;28;20027;-52
2023/04/12 03:21:10;;;;;;;8.23;5.60;;;6.10;99.90;;;;;;4993669;28;20027;-53
2023/04/12 03:23:56;;;;;;;9.75;6.18;;;6.10;99.90;;;;;;4992297;28;20500;-53
2023/04/12 03:26:42;;;;;;;9.90;6.63;;;6.10;99.90;;;;;;4991907;28;20026;-54
2023/04/12 03:29:31;;;;;;;6.63;5.18;;;6.10;99.90;;;;;;4993573;28;20080;-56
2023/04/12 03:32:17;;;;;;;10.45;5.70;;;6.10;99.90;;;;;;4993396;28;20058;-52
2023/04/12 03:35:04;;;;;;;10.60;5.50;;;6.00;99.90;;;;;;4993665;28;20022;-54
2023/04/12 03:37:50;;;;;;;8.13;5.20;;;6.00;99.90;;;;;;4992075;28;20041;-52
2023/04/12 03:40:36;;;;;;;8.43;6.07;;;5.80;99.90;;;;;;4992510;28;20018;-54
2023/04/12 03:43:22;;;;;;;9.98;6.07;;;5.70;99.90;;;;;;4969279;28;20050;-55
2023/04/12 03:46:08;;;;;;;8.65;5.68;;;5.80;99.90;;;;;;4992348;28;20034;-51
2023/04/12 03:48:54;;;;;;;7.00;5.22;;;5.90;99.90;;;;;;4990912;28;20034;-51
2023/04/12 03:51:41;;;;;;;9.43;6.05;;;5.90;99.90;;;;;;4991403;28;20026;-52
2023/04/12 03:54:27;;;;;;;8.63;5.38;;;5.90;99.90;;;;;;4974252;28;20039;-50
2023/04/12 03:57:13;;;;;;;8.13;5.13;;;5.90;99.90;;;;;;4974218;28;20085;-51
2023/04/12 03:59:59;;;;;;;8.65;5.55;;;5.90;99.90;;;;;;4993178;28;20495;-49
2023/04/12 04:02:46;;;;;;;16.27;10.85;;;5.90;99.90;;;;;;4992885;28;20049;-55
2023/04/12 04:05:32;;;;;;;15.85;9.60;;;5.90;99.90;;;;;;4986422;28;20069;-50
2023/04/12 04:08:18;;;;;;;10.63;6.10;;;6.00;99.90;;;;;;4990642;28;20034;-51
2023/04/12 04:11:04;;;;;;;6.93;5.30;;;6.10;99.90;;;;;;4992047;28;20057;-54
2023/04/12 04:13:50;;;;;;;9.18;5.50;;;6.10;99.90;;;;;;4986813;28;20042;-52
2023/04/12 04:16:36;;;;;;;9.02;5.35;;;6.20;99.90;;;;;;4990040;28;20387;-52
2023/04/12 04:19:22;;;;;;;8.32;5.28;;;6.20;99.90;;;;;;4991154;28;20069;-55
2023/04/12 04:22:08;;;;;;;7.90;5.75;;;6.20;99.90;;;;;;4993557;28;20049;-51
2023/04/12 04:24:54;;;;;;;10.63;5.82;;;6.20;99.90;;;;;;4991385;28;20109;-53
2023/04/12 04:27:43;;;;;;;11.07;4.88;;;6.30;99.90;;;;;;4989709;28;20053;-51
2023/04/12 04:30:32;;;;;;;8.25;5.45;;;6.30;99.90;;;;;;4991315;28;20022;-50
2023/04/12 04:33:18;;;;;;;7.43;5.25;;;6.30;99.90;;;;;;4965165;28;20034;-54
2023/04/12 04:36:08;;;;;;;7.13;4.95;;;6.30;99.90;;;;;;4995144;28;20879;-55
2023/04/12 04:38:56;;;;;;;7.20;4.80;;;6.30;99.90;;;;;;4995787;28;20446;-52
2023/04/12 04:41:42;;;;;;;13.13;5.07;;;6.30;99.90;;;;;;4994067;28;20117;-53
2023/04/12 04:44:28;;;;;;;7.65;5.18;;;6.30;99.90;;;;;;4996026;28;20041;-52
2023/04/12 04:47:14;;;;;;;8.25;5.53;;;6.30;99.90;;;;;;4993165;28;20129;-52
2023/04/12 04:50:00;;;;;;;8.32;5.32;;;6.30;99.90;;;;;;4991791;28;20030;-51
2023/04/12 04:52:47;;;;;;;8.55;5.13;;;6.30;99.90;;;;;;4992917;28;20073;-54
2023/04/12 04:55:33;;;;;;;7.28;5.00;;;6.30;99.90;;;;;;4995469;28;20511;-54
2023/04/12 04:58:19;;;;;;;8.00;4.40;;;6.30;99.90;;;;;;4994167;28;20461;-54
2023/04/12 05:01:06;;;;;;;7.43;4.40;;;6.40;99.90;;;;;;4981408;28;20030;-52
2023/04/12 05:03:54;;;;;;;6.85;4.57;;;6.50;99.90;;;;;;4982296;28;20026;-53
2023/04/12 05:06:40;;;;;;;5.75;4.20;;;6.40;99.90;;;;;;4982095;28;20039;-58
2023/04/12 05:09:26;;;;;;;6.55;4.63;;;6.30;99.90;;;;;;4994776;28;20038;-52
2023/04/12 05:12:11;;;;;;;9.25;4.82;;;6.30;99.90;;;;;;4979470;28;20040;-50
2023/04/12 05:14:57;;;;;;;9.10;4.90;;;6.20;99.90;;;;;;4994994;28;20029;-51
2023/04/12 05:17:43;;;;;;;10.10;4.72;;;6.10;99.90;;;;;;4994908;28;20019;-51
2023/04/12 05:20:30;;;;;;;8.18;4.80;;;6.10;99.90;;;;;;4993497;28;20494;-54
2023/04/12 05:23:16;;;;;;;7.25;4.63;;;6.00;99.90;;;;;;4995330;28;20410;-52
2023/04/12 05:26:03;;;;;;;7.47;4.53;;;6.10;99.90;;;;;;4995992;28;20487;-52
2023/04/12 05:28:49;;;;;;;9.02;4.50;;;6.10;99.90;;;;;;4994867;28;20491;-55
2023/04/12 05:31:35;;;;;;;9.18;5.18;;;6.10;99.90;;;;;;4994362;28;20038;-53
2023/04/12 05:34:21;;;;;;;7.82;4.63;;;6.10;99.90;;;;;;4987675;28;20026;-52
2023/04/12 05:37:08;;;;;;;7.45;4.13;;;6.20;99.90;;;;;;4994283;28;20058;-52
2023/04/12 05:39:54;;;;;;;7.60;4.55;;;6.20;99.90;;;;;;4993224;28;20038;-51
2023/04/12 05:42:40;;;;;;;10.35;4.85;;;6.30;99.90;;;;;;4994529;28;20035;-54
2023/04/12 05:45:26;;;;;;;9.40;4.57;;;6.40;99.90;;;;;;4980562;28;20452;-51
2023/04/12 05:48:12;;;;;;;8.68;4.57;;;6.50;99.90;;;;;;4993761;28;20030;-53
2023/04/12 05:50:58;;;;;;;7.95;5.05;;;6.60;99.90;;;;;;4994435;28;20035;-54
2023/04/12 05:53:44;;;;;;;14.77;4.78;;;6.70;99.90;;;;;;4981144;28;20069;-51
2023/04/12 05:56:30;;;;;;;8.95;4.60;;;6.70;99.90;;;;;;4994963;28;20038;-52
2023/04/12 05:59:17;;;;;;;7.65;4.78;;;6.80;99.90;;;;;;4986836;28;20455;-54
2023/04/12 06:02:03;;;;;;;8.32;4.75;;;6.80;99.90;;;;;;4971212;28;20098;-50
2023/04/12 06:04:51;;;;;;;11.55;4.55;;;6.80;99.90;;;;;;4986542;28;20030;-54
2023/04/12 06:07:38;;;;;;;6.07;4.45;;;6.80;99.90;;;;;;4966639;28;20034;-54
2023/04/12 06:10:24;;;;;;;9.93;5.88;;;7.00;99.90;;;;;;4994830;28;20085;-53
2023/04/12 06:13:10;;;;;;;8.13;4.85;;;7.00;99.90;;;;;;4979434;28;20039;-52
2023/04/12 06:15:56;;;;;;;7.50;4.30;;;7.00;99.90;;;;;;4993824;28;20034;-55
2023/04/12 06:18:42;;;;;;;8.15;4.65;;;7.10;99.90;;;;;;4993706;28;20105;-51
2023/04/12 06:21:28;;;;;;;7.32;4.95;;;7.00;99.90;;;;;;4994562;28;20031;-54
2023/04/12 06:24:14;;;;;;;8.13;4.35;;;7.00;99.90;;;;;;4995365;28;20038;-52
2023/04/12 06:27:00;;;;;;;7.53;4.35;;;7.10;99.90;;;;;;4995295;28;20113;-53
2023/04/12 06:29:46;;;;;;;6.47;4.18;;;7.20;99.90;;;;;;4995977;28;20459;-54
2023/04/12 06:32:31;;;;;;;6.35;4.32;;;7.20;99.90;;;;;;4975345;28;20065;-53
2023/04/12 06:35:19;;;;;;;7.70;4.30;;;7.20;99.90;;;;;;4984297;28;20037;-52
2023/04/12 06:38:05;;;;;;;8.43;5.28;;;7.30;99.90;;;;;;4980000;28;20019;-55
2023/04/12 06:40:51;;;;;;;6.25;4.40;;;7.40;99.90;;;;;;4993295;28;20035;-53
2023/04/12 06:43:37;;;;;;;12.60;6.30;;;7.50;99.90;;;;;;4968247;28;20045;-55
2023/04/12 06:46:26;;;;;;;5.88;4.68;;;7.60;99.90;;;;;;4973433;28;20512;-53
2023/04/12 06:49:12;;;;;;;12.25;5.13;;;7.80;99.90;;;;;;4977702;28;20039;-56
2023/04/12 06:51:58;;;;;;;9.40;4.78;;;7.80;99.90;;;;;;4962486;28;20027;-57
2023/04/12 06:54:44;;;;;;;6.82;4.25;;;7.80;99.90;;;;;;4992448;28;20050;-52
2023/04/12 06:57:30;;;;;;;8.45;4.82;;;8.00;99.90;;;;;;4987221;28;20033;-55
2023/04/12 07:00:16;;;;;;;6.03;4.45;;;8.00;99.90;;;;;;4991294;28;20041;-54
2023/04/12 07:03:02;;;;;;;7.60;4.50;;;8.00;99.90;;;;;;4987842;28;20069;-56
2023/04/12 07:05:48;;;;;;;7.30;4.70;;;8.00;99.90;;;;;;4993011;28;20035;-53
2023/04/12 07:08:35;;;;;;;7.45;4.47;;;8.00;99.90;;;;;;4988161;28;20032;-55
2023/04/12 07:11:21;;;;;;;8.57;4.95;;;8.10;99.90;;;;;;4991918;28;20034;-56
2023/04/12 07:14:07;;;;;;;6.93;4.68;;;8.30;99.90;;;;;;4978258;28;20103;-56
2023/04/12 07:16:53;;;;;;;7.05;4.78;;;8.40;99.90;;;;;;4991347;28;20036;-58
2023/04/12 07:19:40;;;;;;;7.25;4.57;;;8.60;99.90;;;;;;4993880;28;20030;-54
2023/04/12 07:22:26;;;;;;;12.88;4.95;;;8.70;99.90;;;;;;4993257;28;20031;-52
2023/04/12 07:25:12;;;;;;;8.43;4.55;;;8.80;99.90;;;;;;4994478;28;20026;-56
2023/04/12 07:27:58;;;;;;;11.23;5.20;;;9.00;99.90;;;;;;4996090;28;20022;-51
2023/04/12 07:30:44;;;;;;;11.82;5.60;;;9.10;99.90;;;;;;4976241;28;20403;-53
2023/04/12 07:33:30;;;;;;;6.95;4.50;;;9.00;99.90;;;;;;4964321;28;20038;-54
2023/04/12 07:36:19;;;;;;;6.65;4.50;;;9.10;99.90;;;;;;4993202;28;20022;-53
2023/04/12 07:39:05;;;;;;;8.35;5.35;;;9.20;99.90;;;;;;4992642;28;20030;-56
2023/04/12 07:41:51;;;;;;;7.20;4.55;;;9.40;99.90;;;;;;4993675;28;20026;-56
2023/04/12 07:44:37;;;;;;;9.10;4.72;;;9.60;99.90;;;;;;4991631;28;20034;-55
2023/04/12 07:47:23;;;;;;;7.68;4.55;;;9.80;99.90;;;;;;4993855;28;20054;-55
2023/04/12 07:50:10;;;;;;;10.00;4.60;;;9.90;99.90;;;;;;4992311;28;20030;-56
2023/04/12 07:53:21;;;;;;;19.98;9.95;;;10.30;99.90;;;;;;4993240;28;20038;-53
2023/04/12 07:56:07;;;;;;;10.43;4.63;;;10.50;99.90;;;;;;4991447;28;20030;-56
2023/04/12 07:58:53;;;;;;;9.10;4.47;;;10.50;99.90;;;;;;4990478;28;20030;-50
2023/04/12 08:01:39;;;;;;;7.93;4.03;;;10.60;99.90;;;;;;4990008;28;20035;-54
2023/04/12 08:04:27;;;;;;;8.63;4.40;;;10.70;99.90;;;;;;4990687;28;20529;-51
2023/04/12 08:07:12;;;;;;;8.32;4.35;;;10.80;99.90;;;;;;4991380;28;20054;-53
2023/04/12 08:09:58;;;;;;;8.02;4.60;;;10.90;99.90;;;;;;4991239;28;20121;-55
2023/04/12 08:12:44;;;;;;;9.00;4.30;;;11.00;99.70;;;;;;4990417;28;20100;-52
2023/04/12 08:15:30;;;;;;;10.43;4.30;;;11.10;99.50;;;;;;4992219;28;20399;-54
2023/04/12 08:18:16;;;;;;;9.77;4.57;;;11.10;99.30;;;;;;4989177;28;20015;-52
2023/04/12 08:21:02;;;;;;;8.55;4.30;;;11.00;99.40;;;;;;4991901;28;20073;-52
2023/04/12 08:23:49;;;;;;;9.57;5.15;;;11.10;99.40;;;;;;4990912;28;20022;-54
2023/04/12 08:26:36;;;;;;;10.98;5.32;;;11.30;99.10;;;;;;4988367;28;20060;-54
2023/04/12 08:29:22;;;;;;;13.63;4.95;;;11.50;98.90;;;;;;4988988;28;20105;-54
2023/04/12 08:32:11;;;;;;;11.32;5.25;;;11.60;98.30;;;;;;4990031;28;20030;-53
2023/04/12 08:34:57;;;;;;;10.13;5.03;;;11.60;97.60;;;;;;4984614;28;20034;-55
2023/04/12 08:37:43;;;;;;;10.48;4.32;;;11.60;97.80;;;;;;4988104;28;20034;-52
2023/04/12 08:40:29;;;;;;;7.80;4.13;;;11.80;97.80;;;;;;4989117;28;20023;-51
2023/04/12 08:43:17;;;;;;;10.48;4.65;;;11.80;96.80;;;;;;4990791;28;20477;-56
2023/04/12 08:46:04;;;;;;;10.68;4.57;;;11.70;96.70;;;;;;4989593;28;20565;-53
2023/04/12 08:48:53;;;;;;;8.68;4.15;;;11.70;96.80;;;;;;4990080;28;20043;-54
2023/04/12 08:51:41;;;;;;;9.00;4.55;;;11.70;96.60;;;;;;4988198;28;20030;-55
2023/04/12 08:54:27;;;;;;;11.07;4.63;;;11.60;96.30;;;;;;4989611;28;20031;-55
2023/04/12 08:57:16;;;;;;;12.48;4.38;;;11.60;96.50;;;;;;4987869;28;20125;-55
2023/04/12 09:00:03;;;;;;;11.15;4.82;;;11.80;96.50;;;;;;4988240;28;20054;-57
2023/04/12 09:02:49;;;;;;;11.68;4.75;;;11.90;96.00;;;;;;4990526;28;20031;-57
2023/04/12 09:05:35;;;;;;;8.63;4.30;;;12.00;96.60;;;;;;4990376;28;20109;-55
2023/04/12 09:08:21;;;;;;;9.65;5.20;;;12.20;95.90;;;;;;4987871;28;20130;-55
2023/04/12 09:11:27;;;;;;;7.75;4.15;;;12.10;95.90;;;;;;4989464;28;20038;-55
2023/04/12 09:14:24;;;;;;;10.25;4.47;;;12.20;95.50;;;;;;4987931;28;20030;-55
2023/04/12 09:17:23;;;;;;;8.10;4.00;;;12.10;95.80;;;;;;4987842;28;20411;-54
2023/04/12 09:20:16;;;;;;;11.73;4.35;;;12.20;95.60;;;;;;4991148;28;20022;-56
2023/04/12 09:23:25;;;;;;;8.15;4.25;;;12.20;95.80;;;;;;4994228;28;20106;-53
2023/04/12 09:26:28;;;;;;;9.63;4.15;;;12.30;95.40;;;;;;4992933;28;20550;-58
2023/04/12 09:29:24;;;;;;;12.93;4.57;;;12.30;95.40;;;;;;4994419;28;20450;-55
2023/04/12 09:32:10;;;;;;;7.15;4.28;;;12.50;95.40;;;;;;4995099;28;20050;-54
2023/04/12 09:34:57;;;;;;;8.38;4.20;;;12.70;95.20;;;;;;4993081;28;20050;-55
2023/04/12 09:37:43;;;;;;;12.80;4.32;;;12.70;95.40;;;;;;4993035;28;20636;-56
2023/04/12 09:40:35;;;;;;;24.08;15.00;;;12.70;94.70;;;;;;4992351;28;20035;-56
2023/04/12 09:43:39;;;;;;;11.60;4.18;;;12.80;94.70;;;;;;4992689;28;20046;-56
2023/04/12 09:46:26;;;;;;;7.32;3.60;;;12.80;94.60;;;;;;4993342;28;20034;-55
2023/04/12 09:49:12;;;;;;;9.35;3.88;;;12.90;93.90;;;;;;4995553;28;20047;-57
2023/04/12 09:51:57;;;;;;;8.43;3.78;;;13.00;93.40;;;;;;4981264;28;20030;-54
2023/04/12 09:54:47;;;;;;;9.15;4.13;;;13.00;93.30;;;;;;4979815;28;20053;-52
2023/04/12 09:57:36;;;;;;;8.25;3.50;;;13.10;92.80;;;;;;4994494;28;20025;-54
2023/04/12 10:00:25;;;;;;;7.20;3.83;;;12.90;92.90;;;;;;4994585;28;20065;-52
2023/04/12 10:03:11;;;;;;;6.20;3.67;;;12.90;93.10;;;;;;4994784;28;20038;-57
2023/04/12 10:05:57;;;;;;;10.13;3.40;;;12.90;93.50;;;;;;4995516;28;20038;-55
2023/04/12 10:08:44;;;;;;;7.72;3.50;;;12.90;93.20;;;;;;4981717;28;20026;-51
2023/04/12 10:11:32;;;;;;;12.73;4.40;;;12.90;93.10;;;;;;4990301;28;20037;-56
2023/04/12 10:14:21;;;;;;;8.00;3.30;;;12.80;93.40;;;;;;4996478;28;20068;-56
2023/04/12 10:17:09;;;;;;;5.35;3.55;;;13.00;93.30;;;;;;4994403;28;20022;-52
2023/04/12 10:19:56;;;;;;;6.47;3.50;;;13.20;93.30;;;;;;4993535;28;20022;-55
2023/04/12 10:22:52;;;;;;;6.93;3.20;;;13.30;92.70;;;;;;4974123;28;20034;-53
2023/04/12 10:25:41;;;;;;;8.07;4.32;;;13.30;92.40;;;;;;4975168;28;20023;-56
2023/04/12 10:28:27;;;;;;;9.38;3.20;;;13.20;92.00;;;;;;4974987;28;20034;-52
2023/04/12 10:31:28;;;;;;;7.35;3.25;;;13.10;92.10;;;;;;4975012;28;20069;-52
2023/04/12 10:34:15;;;;;;;6.55;3.28;;;13.10;92.20;;;;;;4973842;28;20057;-54
2023/04/12 10:37:01;;;;;;;11.82;3.33;;;13.00;92.00;;;;;;4958550;28;20033;-52
2023/04/12 10:39:54;;;;;;;14.90;4.05;;;12.90;92.20;;;;;;4974797;28;20023;-53
2023/04/12 10:42:40;;;;;;;6.38;3.20;;;12.80;92.30;;;;;;4974359;28;20038;-50
2023/04/12 10:45:32;;;;;;;9.75;3.60;;;12.80;92.30;;;;;;4975080;28;20496;-51
2023/04/12 10:48:35;;;;;;;5.38;2.80;;;12.90;92.00;;;;;;4973324;28;20105;-53
2023/04/12 10:51:29;;;;;;;7.07;3.15;;;12.80;91.80;;;;;;4974931;28;20170;-52
2023/04/12 10:54:15;;;;;;;6.03;3.33;;;12.70;91.70;;;;;;4960504;28;20038;-55
2023/04/12 10:57:03;;;;;;;8.10;3.20;;;12.70;91.70;;;;;;4973879;28;20535;-55
2023/04/12 10:59:58;;;;;;;12.88;3.28;;;12.70;91.90;;;;;;4975044;28;20078;-55
2023/04/12 11:03:10;;;;;;;5.63;3.78;;;12.70;92.30;;;;;;4959760;28;20468;-56
2023/04/12 11:06:05;;;;;;;7.88;3.25;;;12.60;92.40;;;;;;4974056;28;20419;-56
2023/04/12 11:08:54;;;;;;;;;;;12.60;92.60;;;;;;4946723;28;20029;-53
2023/04/12 11:11:40;;;;;;;5.95;3.00;;;12.60;92.90;;;;;;4976103;28;19910;-57
2023/04/12 11:14:29;;;;;;;10.13;3.28;;;12.50;93.30;;;;;;4982086;28;20080;-56
2023/04/12 11:17:15;;;;;;;4.85;3.15;;;12.50;93.60;;;;;;4990930;28;20512;-55
2023/04/12 11:20:02;;;;;;;7.53;3.55;;;12.50;93.50;;;;;;4974267;28;20023;-57
2023/04/12 11:22:50;;;;;;;6.80;3.90;;;12.40;93.70;;;;;;4981268;28;20026;-54
2023/04/12 11:25:36;;;;;;;6.90;3.40;;;12.40;94.00;;;;;;4992595;28;20042;-52
2023/04/12 11:28:24;;;;;;;8.02;3.45;;;12.50;94.00;;;;;;4991018;28;20034;-56
2023/04/12 11:31:11;;;;;;;5.85;3.30;;;12.40;94.00;;;;;;4980128;28;20041;-57
2023/04/12 11:33:59;;;;;;;8.65;3.50;;;12.40;94.30;;;;;;4991808;28;20038;-55
2023/04/12 11:36:46;;;;;;;6.10;3.60;;;12.30;94.40;;;;;;4991182;28;20470;-56
2023/04/12 11:39:31;;;;;;;8.02;3.55;;;12.30;94.70;;;;;;4967516;28;20080;-57
2023/04/12 11:42:20;;;;;;;7.40;3.58;;;12.30;94.70;;;;;;4986781;28;20041;-55
2023/04/12 11:45:06;;;;;;;6.53;3.85;;;12.40;94.90;;;;;;4991985;28;20065;-57
2023/04/12 11:47:53;;;;;;;7.20;4.35;;;12.40;95.40;;;;;;4977913;28;20030;-56
2023/04/12 11:50:40;;;;;;;9.23;3.88;;;12.30;95.90;;;;;;4991867;28;20030;-52
2023/04/12 11:53:28;;;;;;;6.72;3.55;;;12.30;96.50;;;;;;4991893;28;20060;-54
2023/04/12 11:56:14;;;;;;;5.53;3.17;;;12.30;96.90;;;;;;4991730;28;20101;-55
2023/04/12 11:58:59;;;;;;;6.47;2.88;;;12.30;96.80;;;;;;4990477;28;20026;-52
2023/04/12 12:01:50;;;;;;;6.03;2.90;;;12.10;97.10;;;;;;4988209;28;20033;-55
2023/04/12 12:04:36;;;;;;;8.70;4.95;;;12.00;97.40;;;;;;4973036;28;20515;-51
2023/04/12 12:07:23;;;;;;;5.90;3.40;;;11.80;98.30;;;;;;4972636;28;20518;-57
2023/04/12 12:10:09;;;;;;;7.20;3.38;;;11.80;99.20;;;;;;4972777;28;20022;-54
2023/04/12 12:12:57;;;;;;;6.95;3.10;;;11.80;99.20;;;;;;4959124;28;20547;-58
2023/04/12 12:15:44;;;;;;;5.93;2.72;;;11.60;99.50;;;;;;4986346;28;20491;-57
2023/04/12 12:18:31;;;;;;;5.68;3.15;;;11.50;99.90;;;;;;4991055;28;20046;-55
2023/04/12 12:21:17;;;;;;;4.13;2.97;;;11.30;99.90;;;;;;4965388;28;20057;-51
2023/04/12 12:24:03;;;;;;;4.57;3.13;;;11.30;99.90;;;;;;4959347;28;20058;-58
2023/04/12 12:26:50;;;;;;;8.75;3.70;;;11.20;99.90;;;;;;4972412;28;20038;-51
2023/04/12 12:29:36;;;;;;;5.55;3.85;;;11.20;99.90;;;;;;4988633;28;20458;-56
2023/04/12 12:32:23;;;;;;;7.60;3.55;;;11.20;99.90;;;;;;4992007;28;20026;-56
2023/04/12 12:35:10;;;;;;;6.05;3.22;;;11.20;99.90;;;;;;4990068;28;20042;-57
2023/04/12 12:37:57;;;;;;;5.13;3.38;;;11.10;99.90;;;;;;4991117;28;20030;-58
2023/04/12 12:40:43;;;;;;;5.00;3.60;;;11.20;99.90;;;;;;4991494;28;20026;-54
2023/04/12 12:43:29;;;;;;;4.50;3.33;;;11.20;99.90;;;;;;4971527;28;20089;-54
2023/04/12 12:46:17;;;;;;;5.93;3.97;;;11.10;99.90;;;;;;4972125;28;20267;-57
2023/04/12 12:49:03;;;;;;;8.50;3.45;;;11.00;99.90;;;;;;4972770;28;20073;-52
2023/04/12 12:51:49;;;;;;;3.90;3.15;;;10.90;99.90;;;;;;4976363;28;20546;-56
2023/04/12 12:54:36;;;;;;;3.97;3.40;;;10.80;99.90;;;;;;4991421;28;20042;-58
2023/04/12 12:57:22;;;;;;;5.07;3.67;;;10.80;99.90;;;;;;4994349;28;20394;-52
2023/04/12 13:00:09;;;;;;;4.95;3.75;;;10.90;99.90;;;;;;4993470;28;20054;-58
2023/04/12 13:02:55;;;;;;;7.15;4.40;;;10.90;99.90;;;;;;4995182;28;20034;-56
2023/04/12 13:05:41;;;;;;;8.43;4.68;;;11.00;99.90;;;;;;4995205;28;20027;-57
2023/04/12 13:08:33;;;;;;;5.53;4.18;;;11.00;99.90;;;;;;4993964;28;20038;-56
2023/04/12 13:11:19;;;;;;;6.80;4.70;;;11.00;99.90;;;;;;4996042;28;20041;-60
2023/04/12 13:14:05;;;;;;;7.30;4.57;;;10.90;99.90;;;;;;4967843;28;20041;-60
2023/04/12 13:16:51;;;;;;;5.82;3.97;;;10.90;99.90;;;;;;4994630;28;20026;-58
2023/04/12 13:19:37;;;;;;;6.68;4.13;;;11.00;99.90;;;;;;4993600;28;20030;-58
2023/04/12 13:22:24;;;;;;;6.38;4.55;;;11.10;99.90;;;;;;4987946;28;20035;-58
2023/04/12 13:25:10;;;;;;;6.03;4.15;;;11.00;99.90;;;;;;4995467;28;20088;-57
2023/04/12 13:27:56;;;;;;;8.65;4.65;;;11.00;99.90;;;;;;4980531;28;20046;-59
2023/04/12 13:30:42;;;;;;;5.35;3.65;;;11.00;99.90;;;;;;4994100;28;20104;-59
2023/04/12 13:33:28;;;;;;;7.30;4.13;;;10.90;99.90;;;;;;4982794;28;20045;-59
2023/04/12 13:36:14;;;;;;;5.68;3.70;;;10.90;99.90;;;;;;4994235;28;20033;-57
2023/04/12 13:39:00;;;;;;;4.68;3.97;;;10.90;99.90;;;;;;4980664;28;20525;-54
2023/04/12 13:41:46;;;;;;;5.35;3.90;;;10.70;99.90;;;;;;4995198;28;20125;-58
2023/04/12 13:44:32;;;;;;;5.55;3.67;;;10.60;99.90;;;;;;4995433;28;20073;-62
2023/04/12 13:47:18;;;;;;;5.95;3.90;;;10.60;99.90;;;;;;4990872;28;20109;-59
2023/04/12 13:50:04;;;;;;;5.88;4.10;;;10.70;99.90;;;;;;4992258;28;20031;-58
2023/04/12 13:52:50;;;;;;;5.57;3.60;;;10.60;99.90;;;;;;4991461;28;20034;-59
2023/04/12 13:55:36;;;;;;;7.00;4.53;;;10.70;99.90;;;;;;4987299;28;20037;-62
2023/04/12 13:58:24;;;;;;;8.20;4.60;;;10.70;99.90;;;;;;4992819;28;20062;-59
2023/04/12 14:01:10;;;;;;;8.40;4.32;;;10.60;99.90;;;;;;4992908;28;20030;-61
2023/04/12 14:03:56;;;;;;;7.35;4.32;;;10.40;99.90;;;;;;4993644;28;20034;-58
2023/04/12 14:06:44;;;;;;;6.88;4.25;;;10.40;99.90;;;;;;4992248;28;20038;-55
2023/04/12 14:09:31;;;;;;;7.93;5.15;;;10.40;99.90;;;;;;4961457;28;20473;-58
2023/04/12 14:12:17;;;;;;;8.57;6.25;;;10.50;99.90;;;;;;4980707;28;20027;-57
2023/04/12 14:15:04;;;;;;;7.18;4.07;;;10.50;99.90;;;;;;4995766;28;20117;-57
2023/04/12 14:17:50;;;;;;;8.50;4.07;;;10.60;99.90;;;;;;4993023;28;20030;-58
2023/04/12 14:20:36;;;;;;;6.38;3.97;;;10.60;99.90;;;;;;4980251;28;20038;-56
2023/04/12 14:23:24;;;;;;;5.78;4.07;;;10.70;99.90;;;;;;4991440;28;20151;-59
2023/04/12 14:26:14;;;;;;;7.53;4.40;;;10.80;99.90;;;;;;4992713;28;20493;-59
2023/04/12 14:29:00;;;;;;;6.30;4.10;;;10.70;99.90;;;;;;5000562;28;20034;-57
2023/04/12 14:31:46;;;;;;;6.75;3.80;;;10.80;99.90;;;;;;5000473;28;20091;-58
2023/04/12 14:34:33;;;;;;;5.45;4.55;;;10.80;99.90;;;;;;4996056;28;20038;-53
2023/04/12 14:37:19;;;;;;;5.90;4.43;;;10.80;99.90;;;;;;4991710;28;20113;-59